createdAt,value
2023-04-13T00:01:50.849Z,6.72
2023-04-13T00:04:19.297Z,6.69
2023-04-13T00:06:50.453Z,6.66
2023-04-13T00:09:19.948Z,6.64
2023-04-13T00:11:49.145Z,6.61
2023-04-13T00:14:18.857Z,6.60
2023-04-13T00:16:54.388Z,6.59
2023-04-13T00:19:24.402Z,6.58
2023-04-13T00:21:53.814Z,6.56
2023-04-13T00:24:24.150Z,6.56
2023-04-13T00:26:54.532Z,6.55
2023-04-13T00:29:23.525Z,6.54
2023-04-13T00:31:51.721Z,6.53
2023-04-13T00:34:19.807Z,6.53
2023-04-13T00:36:49.023Z,6.51
2023-04-13T00:39:23.254Z,6.50
2023-04-13T00:41:55.983Z,6.46
2023-04-13T00:44:24.255Z,6.41
2023-04-13T00:46:55.337Z,6.37
2023-04-13T00:49:23.517Z,6.32
2023-04-13T00:51:52.837Z,6.27
2023-04-13T00:54:22.285Z,6.21
2023-04-13T00:56:50.949Z,6.16
2023-04-13T00:59:21.032Z,6.10
2023-04-13T01:01:56.452Z,6.06
2023-04-13T01:04:26.123Z,6.03
2023-04-13T01:07:15.989Z,6.00
2023-04-13T01:09:52.600Z,5.97
2023-04-13T01:12:27.770Z,5.95
2023-04-13T01:14:59.143Z,5.92
2023-04-13T01:17:28.990Z,5.92
2023-04-13T01:20:01.647Z,5.92
2023-04-13T01:22:33.896Z,5.93
2023-04-13T01:25:31.868Z,5.95
2023-04-13T01:28:09.730Z,5.98
2023-04-13T01:30:39.746Z,6.00
2023-04-13T01:39:45.137Z,6.07
2023-04-13T01:42:31.357Z,6.04
2023-04-13T01:45:00.597Z,6.05
2023-04-13T01:47:29.950Z,6.04
2023-04-13T01:50:25.922Z,6.05
2023-04-13T01:53:17.752Z,6.07
2023-04-13T01:55:53.253Z,6.10
2023-04-13T01:58:23.462Z,6.09
2023-04-13T02:00:58.109Z,6.11
2023-04-13T02:03:27.339Z,6.15
2023-04-13T02:05:56.982Z,6.19
2023-04-13T02:08:25.590Z,6.21
2023-04-13T02:10:54.207Z,6.24
2023-04-13T02:13:25.447Z,6.27
2023-04-13T02:15:54.027Z,6.30
2023-04-13T02:18:23.912Z,6.33
2023-04-13T02:21:12.310Z,6.33
2023-04-13T02:23:48.812Z,6.30
2023-04-13T02:26:18.817Z,6.29
2023-04-13T02:28:47.293Z,6.29
2023-04-13T02:31:17.372Z,6.29
2023-04-13T02:33:48.130Z,6.27
2023-04-13T02:36:17.371Z,6.26
2023-04-13T02:39:01.827Z,6.24
2023-04-13T02:41:34.385Z,6.21
2023-04-13T02:44:03.498Z,6.19
2023-04-13T02:46:37.426Z,6.18
2023-04-13T02:49:14.770Z,6.18
2023-04-13T02:51:52.300Z,6.15
2023-04-13T02:54:23.680Z,6.12
2023-04-13T02:56:52.279Z,6.09
2023-04-13T02:59:21.378Z,6.04
2023-04-13T03:01:50.230Z,5.99
2023-04-13T03:04:20.730Z,5.94
2023-04-13T03:06:49.219Z,5.90
2023-04-13T03:09:17.973Z,5.87
2023-04-13T03:11:52.669Z,5.85
2023-04-13T03:14:29.818Z,5.84
2023-04-13T03:17:03.342Z,5.83
2023-04-13T03:19:39.195Z,5.80
2023-04-13T03:22:08.505Z,5.77
2023-04-13T03:24:40.278Z,5.71
2023-04-13T03:27:09.693Z,5.67
2023-04-13T03:29:41.991Z,5.61
2023-04-13T03:32:16.570Z,5.53
2023-04-13T03:34:48.011Z,5.46
2023-04-13T03:37:16.416Z,5.40
2023-04-13T03:39:45.573Z,5.34
2023-04-13T03:42:16.897Z,5.33
2023-04-13T03:44:49.404Z,5.31
2023-04-13T03:47:17.434Z,5.29
2023-04-13T03:49:45.370Z,5.28
2023-04-13T03:52:13.517Z,5.29
2023-04-13T03:54:44.280Z,5.29
2023-04-13T03:57:12.757Z,5.31
2023-04-13T03:59:42.319Z,5.35
2023-04-13T04:02:11.083Z,5.48
2023-04-13T04:04:40.983Z,5.64
2023-04-13T04:07:13.582Z,5.84
2023-04-13T04:09:43.411Z,6.03
2023-04-13T04:12:14.252Z,6.17
2023-04-13T04:14:43.147Z,6.27
2023-04-13T04:17:21.372Z,6.43
2023-04-13T04:19:49.984Z,6.71
2023-04-13T04:22:20.637Z,7.11
2023-04-13T04:24:49.934Z,7.51
2023-04-13T04:27:17.906Z,7.91
2023-04-13T04:29:49.376Z,8.29
2023-04-13T04:32:28.243Z,8.48
2023-04-13T04:38:24.502Z,8.47
2023-04-13T04:40:57.584Z,8.35
2023-04-13T04:43:27.367Z,8.23
2023-04-13T04:45:59.254Z,8.12
2023-04-13T04:48:31.939Z,8.00
2023-04-13T04:51:08.779Z,7.90
2023-04-13T04:53:38.279Z,7.84
2023-04-13T04:56:07.613Z,7.77
2023-04-13T04:58:44.979Z,7.73
2023-04-13T05:01:13.323Z,7.72
2023-04-13T05:03:42.833Z,7.72
2023-04-13T05:06:34.414Z,7.74
2023-04-13T05:09:04.493Z,7.76
2023-04-13T05:11:33.371Z,7.77
2023-04-13T05:14:03.264Z,7.78
2023-04-13T05:16:34.634Z,7.81
2023-04-13T05:19:09.074Z,7.84
2023-04-13T05:22:01.587Z,7.88
2023-04-13T05:24:33.679Z,7.90
2023-04-13T05:27:03.403Z,7.94
2023-04-13T05:29:33.468Z,7.98
2023-04-13T05:32:02.586Z,8.03
2023-04-13T05:34:32.821Z,8.08
2023-04-13T05:37:06.447Z,8.13
2023-04-13T05:39:36.342Z,8.18
2023-04-13T05:42:04.422Z,8.23
2023-04-13T05:44:34.530Z,8.28
2023-04-13T05:47:03.480Z,8.35
2023-04-13T05:49:32.984Z,8.42
2023-04-13T05:52:03.857Z,8.48
2023-04-13T05:54:40.653Z,8.56
2023-04-13T05:57:10.087Z,8.61
2023-04-13T05:59:43.106Z,8.64
2023-04-13T06:02:12.804Z,8.67
2023-04-13T06:04:41.853Z,8.72
2023-04-13T06:07:16.554Z,8.79
2023-04-13T06:12:48.770Z,8.92
2023-04-13T06:15:23.256Z,8.98
2023-04-13T06:17:53.347Z,9.07
2023-04-13T06:20:21.804Z,9.16
2023-04-13T06:22:50.887Z,9.24
2023-04-13T06:25:21.368Z,9.33
2023-04-13T06:27:54.489Z,9.41
2023-04-13T06:30:23.456Z,9.47
2023-04-13T06:32:54.582Z,9.52
2023-04-13T06:35:29.618Z,9.59
2023-04-13T06:38:00.049Z,9.66
2023-04-13T06:40:33.369Z,9.75
2023-04-13T06:43:08.959Z,9.81
2023-04-13T06:45:47.835Z,9.86
2023-04-13T06:48:21.412Z,9.92
2023-04-13T06:50:56.049Z,10.00
2023-04-13T06:53:24.702Z,10.09
2023-04-13T06:55:54.616Z,10.16
2023-04-13T06:58:23.472Z,10.24
2023-04-13T07:00:51.580Z,10.28
2023-04-13T07:03:20.374Z,10.33
2023-04-13T07:05:50.531Z,10.39
2023-04-13T07:08:19.514Z,10.47
2023-04-13T07:10:53.000Z,10.57
2023-04-13T07:13:28.690Z,10.65
2023-04-13T07:15:57.117Z,10.75
2023-04-13T07:18:25.406Z,10.84
2023-04-13T07:20:55.891Z,10.94
2023-04-13T07:23:26.665Z,11.05
2023-04-13T07:25:54.694Z,11.13
2023-04-13T07:28:26.017Z,11.22
2023-04-13T07:30:56.931Z,11.30
2023-04-13T07:33:25.793Z,11.37
2023-04-13T07:36:13.720Z,11.44
2023-04-13T07:38:44.585Z,11.49
2023-04-13T07:41:13.422Z,11.54
2023-04-13T07:43:44.265Z,11.61
2023-04-13T07:46:13.764Z,11.65
2023-04-13T07:48:44.354Z,11.69
2023-04-13T07:51:23.159Z,11.72
2023-04-13T07:53:55.773Z,11.75
2023-04-13T07:56:27.180Z,11.79
2023-04-13T07:58:56.338Z,11.83
2023-04-13T08:01:24.775Z,11.88
2023-04-13T08:03:52.971Z,11.95
2023-04-13T08:06:27.506Z,12.00
2023-04-13T08:08:56.386Z,12.04
2023-04-13T08:11:25.090Z,12.07
2023-04-13T08:14:02.926Z,12.10
2023-04-13T08:16:35.846Z,12.15
2023-04-13T08:19:06.714Z,12.19
2023-04-13T08:21:41.024Z,12.24
2023-04-13T08:24:12.877Z,12.26
2023-04-13T08:26:41.696Z,12.26
2023-04-13T08:29:10.508Z,12.28
2023-04-13T08:31:43.673Z,12.31
2023-04-13T08:34:14.043Z,12.36
2023-04-13T08:36:42.103Z,12.40
2023-04-13T08:39:13.037Z,12.42
2023-04-13T08:41:47.367Z,12.45
2023-04-13T08:44:17.643Z,12.49
2023-04-13T08:46:52.833Z,12.51
2023-04-13T08:49:27.439Z,12.55
2023-04-13T08:52:25.302Z,12.63
2023-04-13T08:54:55.715Z,12.70
2023-04-13T08:57:26.428Z,12.79
2023-04-13T08:59:54.640Z,12.85
2023-04-13T09:02:29.062Z,12.89
2023-04-13T09:05:05.609Z,12.93
2023-04-13T09:07:36.650Z,13.01
2023-04-13T09:10:10.208Z,13.08
2023-04-13T09:12:41.587Z,13.16
2023-04-13T09:15:10.341Z,13.24
2023-04-13T09:17:48.394Z,13.31
2023-04-13T09:20:22.762Z,13.39
2023-04-13T09:22:52.141Z,13.47
2023-04-13T09:25:24.862Z,13.55
2023-04-13T09:27:59.187Z,13.57
2023-04-13T09:30:27.957Z,13.57
2023-04-13T09:33:07.294Z,13.55
2023-04-13T09:39:06.074Z,13.53
2023-04-13T09:41:39.963Z,13.59
2023-04-13T09:44:20.185Z,13.65
2023-04-13T09:46:57.360Z,13.72
2023-04-13T09:49:25.234Z,13.79
2023-04-13T09:51:53.288Z,13.83
2023-04-13T09:54:21.443Z,13.88
2023-04-13T09:56:53.906Z,13.95
2023-04-13T09:59:24.039Z,14.03
2023-04-13T10:01:51.556Z,14.17
2023-04-13T10:04:18.541Z,14.35
2023-04-13T10:06:46.304Z,14.56
2023-04-13T10:09:14.832Z,14.72
2023-04-13T10:11:46.467Z,14.84
2023-04-13T10:14:16.037Z,14.96
2023-04-13T10:16:56.252Z,15.02
2023-04-13T10:19:29.372Z,15.04
2023-04-13T10:21:58.102Z,15.04
2023-04-13T10:24:31.619Z,15.03
2023-04-13T10:27:01.090Z,15.06
2023-04-13T10:29:28.767Z,15.14
2023-04-13T10:32:02.050Z,15.26
2023-04-13T10:34:30.732Z,15.34
2023-04-13T10:36:59.313Z,15.43
2023-04-13T10:39:33.668Z,15.55
2023-04-13T10:42:10.032Z,15.66
2023-04-13T10:44:51.913Z,15.84
2023-04-13T10:47:20.067Z,15.96
2023-04-13T10:49:47.920Z,15.94
2023-04-13T10:52:15.689Z,15.89
2023-04-13T10:54:43.783Z,15.87
2023-04-13T10:57:14.300Z,15.90
2023-04-13T11:07:23.586Z,15.85
2023-04-13T11:10:02.808Z,15.84
2023-04-13T11:12:31.943Z,15.87
2023-04-13T11:15:03.972Z,15.88
2023-04-13T11:17:34.136Z,15.92
2023-04-13T11:20:04.178Z,15.96
2023-04-13T11:22:36.573Z,16.00
2023-04-13T11:25:06.985Z,16.02
2023-04-13T11:27:35.158Z,16.04
2023-04-13T11:30:09.355Z,16.04
2023-04-13T11:32:43.487Z,16.01
2023-04-13T11:35:14.643Z,16.00
2023-04-13T11:37:52.612Z,16.01
2023-04-13T11:40:23.092Z,16.03
2023-04-13T11:42:55.572Z,16.05
2023-04-13T11:45:26.950Z,16.03
2023-04-13T11:47:58.070Z,16.00
2023-04-13T11:50:26.415Z,16.03
2023-04-13T11:52:58.520Z,16.08
2023-04-13T11:55:26.644Z,16.14
2023-04-13T11:57:54.946Z,16.22
2023-04-13T12:00:26.986Z,16.32
2023-04-13T12:03:02.503Z,16.43
2023-04-13T12:05:33.138Z,16.53
2023-04-13T12:08:09.512Z,16.59
2023-04-13T12:10:51.366Z,16.58
2023-04-13T12:13:36.198Z,16.52
2023-04-13T12:16:15.719Z,16.40
2023-04-13T12:18:47.197Z,16.27
2023-04-13T12:21:28.978Z,16.17
2023-04-13T12:24:01.254Z,16.11
2023-04-13T12:29:05.727Z,16.05
2023-04-13T12:31:38.188Z,16.04
2023-04-13T12:34:07.841Z,16.07
2023-04-13T12:36:36.814Z,16.14
2023-04-13T12:39:08.541Z,16.24
2023-04-13T12:41:36.757Z,16.35
2023-04-13T12:44:07.132Z,16.46
2023-04-13T12:46:35.882Z,16.57
2023-04-13T12:49:04.111Z,16.67
2023-04-13T12:51:35.088Z,16.79
2023-04-13T12:54:03.687Z,16.91
2023-04-13T12:56:33.531Z,17.03
2023-04-13T12:59:03.167Z,17.14
2023-04-13T13:01:31.926Z,17.18
2023-04-13T13:04:01.523Z,17.19
2023-04-13T13:06:30.348Z,17.12
2023-04-13T13:08:58.787Z,17.03
2023-04-13T13:11:28.337Z,17.00
2023-04-13T13:13:56.814Z,16.94
2023-04-13T13:16:25.145Z,16.91
2023-04-13T13:18:57.782Z,16.93
2023-04-13T13:21:26.833Z,16.94
2023-04-13T13:23:55.058Z,16.89
2023-04-13T13:26:26.154Z,16.84
2023-04-13T13:28:59.182Z,16.80
2023-04-13T13:31:27.718Z,16.83
2023-04-13T13:33:56.100Z,16.86
2023-04-13T13:36:24.721Z,16.89
2023-04-13T13:38:52.965Z,16.87
2023-04-13T13:41:23.062Z,16.79
2023-04-13T13:43:51.722Z,16.71
2023-04-13T13:46:19.757Z,16.65
2023-04-13T13:48:48.797Z,16.59
2023-04-13T13:51:41.153Z,16.53
2023-04-13T13:54:10.495Z,16.48
2023-04-13T13:56:38.817Z,16.43
2023-04-13T13:59:07.073Z,16.35
2023-04-13T14:01:35.570Z,16.26
2023-04-13T14:04:05.304Z,16.16
2023-04-13T14:06:37.642Z,16.08
2023-04-13T14:09:06.544Z,16.02
2023-04-13T14:11:34.730Z,15.96
2023-04-13T14:14:10.740Z,15.93
2023-04-13T14:24:52.100Z,16.06
2023-04-13T14:27:21.387Z,16.09
2023-04-13T14:29:49.596Z,16.12
2023-04-13T14:32:22.765Z,16.14
2023-04-13T14:34:51.011Z,16.14
2023-04-13T14:37:19.881Z,16.14
2023-04-13T14:39:49.188Z,16.16
2023-04-13T14:42:17.467Z,16.21
2023-04-13T14:44:45.658Z,16.25
2023-04-13T14:47:15.967Z,16.29
2023-04-13T14:49:45.014Z,16.31
2023-04-13T14:52:14.635Z,16.35
2023-04-13T14:54:46.975Z,16.39
2023-04-13T14:57:17.209Z,16.42
2023-04-13T14:59:46.018Z,16.46
2023-04-13T15:02:15.860Z,16.47
2023-04-13T15:04:44.926Z,16.51
2023-04-13T15:07:13.099Z,16.50
2023-04-13T15:09:41.514Z,16.50
2023-04-13T15:12:12.613Z,16.48
2023-04-13T15:14:46.541Z,16.47
2023-04-13T15:17:14.763Z,16.41
2023-04-13T15:19:47.815Z,16.33
2023-04-13T15:22:17.015Z,16.27
2023-04-13T15:24:45.277Z,16.19
2023-04-13T15:27:13.312Z,16.12
2023-04-13T15:29:42.424Z,16.10
2023-04-13T15:32:11.116Z,16.08
2023-04-13T15:34:40.547Z,16.06
2023-04-13T15:37:08.794Z,16.00
2023-04-13T15:39:36.860Z,15.96
2023-04-13T15:42:05.757Z,15.92
2023-04-13T15:44:34.573Z,15.87
2023-04-13T15:47:03.271Z,15.83
2023-04-13T15:49:32.969Z,15.78
2023-04-13T15:52:01.355Z,15.69
2023-04-13T15:54:30.030Z,15.59
2023-04-13T15:56:59.015Z,15.48
2023-04-13T15:59:34.019Z,15.38
2023-04-13T16:02:02.497Z,15.28
2023-04-13T16:04:32.960Z,15.19
2023-04-13T16:07:12.661Z,15.11
2023-04-13T16:09:43.801Z,15.01
2023-04-13T16:12:12.045Z,14.92
2023-04-13T16:14:44.839Z,14.82
2023-04-13T16:17:18.718Z,14.74
2023-04-13T16:19:50.727Z,14.65
2023-04-13T16:22:18.984Z,14.55
2023-04-13T16:24:49.622Z,14.45
2023-04-13T16:27:18.010Z,14.36
2023-04-13T16:29:46.486Z,14.26
2023-04-13T16:32:20.379Z,14.15
2023-04-13T16:34:49.069Z,14.05
2023-04-13T16:37:17.364Z,13.95
2023-04-13T16:39:46.852Z,13.85
2023-04-13T16:42:16.886Z,13.77
2023-04-13T16:44:45.671Z,13.67
2023-04-13T16:47:18.188Z,13.58
2023-04-13T16:49:46.797Z,13.50
2023-04-13T16:52:15.273Z,13.43
2023-04-13T16:54:46.755Z,13.34
2023-04-13T16:57:14.991Z,13.23
2023-04-13T16:59:43.085Z,13.12
2023-04-13T17:02:28.070Z,13.02
2023-04-13T17:04:59.307Z,12.91
2023-04-13T17:07:29.760Z,12.81
2023-04-13T17:10:18.427Z,12.67
2023-04-13T17:12:48.120Z,12.54
2023-04-13T17:15:18.900Z,12.43
2023-04-13T17:17:47.163Z,12.32
2023-04-13T17:20:17.057Z,12.21
2023-04-13T17:22:46.208Z,12.09
2023-04-13T17:25:16.151Z,11.96
2023-04-13T17:27:44.791Z,11.83
2023-04-13T17:30:13.578Z,11.70
2023-04-13T17:32:56.646Z,11.56
2023-04-13T17:35:26.202Z,11.46
2023-04-13T17:37:54.271Z,11.35
2023-04-13T17:40:31.213Z,11.25
2023-04-13T17:42:59.437Z,11.18
2023-04-13T17:45:27.906Z,11.11
2023-04-13T17:47:56.135Z,11.03
2023-04-13T17:50:25.102Z,10.95
2023-04-13T17:52:53.383Z,10.87
2023-04-13T17:55:23.748Z,10.80
2023-04-13T17:57:52.063Z,10.71
2023-04-13T18:00:21.342Z,10.58
2023-04-13T18:02:58.563Z,10.49
2023-04-13T18:05:27.869Z,10.40
2023-04-13T18:07:56.361Z,10.34
2023-04-13T18:10:25.276Z,10.31
2023-04-13T18:12:53.797Z,10.27
2023-04-13T18:15:24.671Z,10.20
2023-04-13T18:17:53.125Z,10.15
2023-04-13T18:20:24.914Z,10.09
2023-04-13T18:22:53.453Z,10.03
2023-04-13T18:25:21.678Z,9.96
2023-04-13T18:31:01.242Z,9.84
2023-04-13T18:33:31.843Z,9.72
2023-04-13T18:36:00.200Z,9.61
2023-04-13T18:38:28.341Z,9.53
2023-04-13T18:40:56.591Z,9.45
2023-04-13T18:43:24.725Z,9.37
2023-04-13T18:45:53.003Z,9.28
2023-04-13T18:48:21.407Z,9.20
2023-04-13T18:50:53.922Z,9.11
2023-04-13T18:53:21.914Z,9.02
2023-04-13T18:55:51.276Z,8.93
2023-04-13T19:05:44.857Z,8.76
2023-04-13T19:08:13.933Z,8.68
2023-04-13T19:10:42.946Z,8.62
2023-04-13T19:13:11.235Z,8.56
2023-04-13T19:15:40.563Z,8.50
2023-04-13T19:18:11.510Z,8.44
2023-04-13T19:20:39.873Z,8.39
2023-04-13T19:23:08.396Z,8.34
2023-04-13T19:25:42.251Z,8.29
2023-04-13T19:28:10.752Z,8.24
2023-04-13T19:30:38.872Z,8.19
2023-04-13T19:33:07.303Z,8.15
2023-04-13T19:35:36.163Z,8.10
2023-04-13T19:38:04.340Z,8.02
2023-04-13T19:40:32.933Z,7.94
2023-04-13T19:43:01.608Z,7.88
2023-04-13T19:45:30.729Z,7.80
2023-04-13T19:47:59.458Z,7.74
2023-04-13T19:50:28.737Z,7.70
2023-04-13T19:52:58.320Z,7.65
2023-04-13T19:55:27.488Z,7.61
2023-04-13T19:57:55.805Z,7.57
2023-04-13T20:00:24.301Z,7.48
2023-04-13T20:03:03.347Z,7.36
2023-04-13T20:05:32.809Z,7.27
2023-04-13T20:08:00.952Z,7.22
2023-04-13T20:10:29.458Z,7.19
2023-04-13T20:12:58.976Z,7.14
2023-04-13T20:15:31.037Z,7.07
2023-04-13T20:17:59.755Z,7.00
2023-04-13T20:20:29.276Z,6.95
2023-04-13T20:22:58.064Z,6.91
2023-04-13T20:25:26.355Z,6.87
2023-04-13T20:27:55.018Z,6.85
2023-04-13T20:30:23.505Z,6.81
2023-04-13T20:32:52.212Z,6.77
2023-04-13T20:35:21.222Z,6.72
2023-04-13T20:37:51.239Z,6.68
2023-04-13T20:40:27.171Z,6.63
2023-04-13T20:42:58.583Z,6.57
2023-04-13T20:45:27.309Z,6.53
2023-04-13T20:47:57.502Z,6.49
2023-04-13T20:50:27.524Z,6.44
2023-04-13T20:52:56.871Z,6.39
2023-04-13T20:55:26.387Z,6.34
2023-04-13T20:57:55.018Z,6.28
2023-04-13T21:00:23.615Z,6.25
2023-04-13T21:02:53.258Z,6.22
2023-04-13T21:05:22.462Z,6.18
2023-04-13T21:07:51.892Z,6.13
2023-04-13T21:10:20.636Z,6.08
2023-04-13T21:12:50.885Z,6.03
2023-04-13T21:15:19.331Z,5.99
2023-04-13T21:17:53.478Z,5.96
2023-04-13T21:20:22.480Z,5.92
2023-04-13T21:22:50.755Z,5.90
2023-04-13T21:25:19.690Z,5.88
2023-04-13T21:27:48.579Z,5.87
2023-04-13T21:30:16.961Z,5.87
2023-04-13T21:32:46.413Z,5.86
2023-04-13T21:35:17.422Z,5.85
2023-04-13T21:37:45.830Z,5.85
2023-04-13T21:40:14.713Z,5.86
2023-04-13T21:42:44.624Z,5.87
2023-04-13T21:45:12.918Z,5.87
2023-04-13T21:47:41.285Z,5.88
2023-04-13T21:50:10.474Z,5.87
2023-04-13T21:52:38.807Z,5.84
2023-04-13T21:55:07.596Z,5.84
2023-04-13T21:57:35.899Z,5.82
2023-04-13T22:00:06.389Z,5.78
2023-04-13T22:02:41.949Z,5.75
2023-04-13T22:05:11.154Z,5.71
2023-04-13T22:07:47.347Z,5.67
2023-04-13T22:10:15.917Z,5.65
2023-04-13T22:12:44.236Z,5.64
2023-04-13T22:15:15.420Z,5.64
2023-04-13T22:17:44.273Z,5.63
2023-04-13T22:20:12.785Z,5.62
2023-04-13T22:22:40.942Z,5.62
2023-04-13T22:25:09.340Z,5.62
2023-04-13T22:27:37.890Z,5.60
2023-04-13T22:30:07.435Z,5.57
2023-04-13T22:32:36.365Z,5.54
2023-04-13T22:35:05.451Z,5.49
2023-04-13T22:37:35.447Z,5.44
2023-04-13T22:40:04.525Z,5.38
2023-04-13T22:42:33.109Z,5.32
2023-04-13T22:45:01.633Z,5.29
2023-04-13T22:47:30.542Z,5.26
2023-04-13T22:50:00.315Z,5.22
2023-04-13T22:52:32.362Z,5.18
2023-04-13T22:55:00.968Z,5.17
2023-04-13T23:05:04.860Z,5.08
2023-04-13T23:07:33.068Z,5.03
2023-04-13T23:10:03.308Z,5.00
2023-04-13T23:12:32.387Z,4.99
2023-04-13T23:15:00.698Z,4.97
2023-04-13T23:17:29.691Z,4.93
2023-04-13T23:19:58.767Z,4.88
2023-04-13T23:22:28.166Z,4.83
2023-04-13T23:25:04.000Z,4.79
2023-04-13T23:27:32.485Z,4.76
2023-04-13T23:30:01.196Z,4.75
2023-04-13T23:32:29.892Z,4.74
2023-04-13T23:34:58.359Z,4.74
2023-04-13T23:37:26.442Z,4.75
2023-04-13T23:39:54.841Z,4.77
2023-04-13T23:42:23.047Z,4.78
2023-04-13T23:44:51.307Z,4.79
2023-04-13T23:47:21.284Z,4.81
2023-04-13T23:49:51.486Z,4.82
2023-04-13T23:52:20.879Z,4.83
2023-04-13T23:54:48.850Z,4.83
2023-04-13T23:57:17.023Z,4.83
2023-04-13T23:59:45.336Z,4.81
